Time;durP1;ratioP1;P1;durP2;ratioP2;P2;SDS_P1;SDS_P2;PMS_P1;PMS_P2;Temp;Humidity;BMP_temperature;BMP_pressure;BME280_temperature;BME280_humidity;BME280_pressure;Samples;Min_cycle;Max_cycle;Signal;HPM_P1;HPM_P2
2023/11/06 19:54:22;;;;;;;;;2.00;1.67;;;;;23.10;43.48;100529.16;4953037;28;45504;-73
2023/11/06 19:56:47;;;;;;;;;2.00;2.00;;;;;23.03;43.48;100519.31;4953922;28;45428;-75
2023/11/06 19:59:12;;;;;;;;;1.00;1.00;;;;;22.94;43.40;100505.41;4956577;28;45721;-72
2023/11/06 20:01:38;;;;;;;;;2.00;2.00;;;;;23.02;43.51;100515.03;4956899;28;45540;-73
2023/11/06 20:04:07;;;;;;;;;1.00;1.00;;;;;22.94;43.63;100505.41;4956397;28;46102;-71
2023/11/06 20:06:33;;;;;;;;;4.00;1.00;;;;;23.00;43.51;100519.72;4956977;28;45300;-72
2023/11/06 20:08:58;;;;;;;;;3.00;1.00;;;;;22.71;43.39;100465.88;4956523;28;45417;-72
2023/11/06 20:11:24;;;;;;;;;2.00;2.00;;;;;22.90;43.87;100493.53;4956819;28;45172;-72
2023/11/06 20:13:49;;;;;;;;;2.00;1.33;;;;;22.70;43.60;100485.44;4956747;28;46397;-72
2023/11/06 20:16:15;;;;;;;;;1.00;1.00;;;;;23.00;43.82;100518.91;4956745;28;45353;-73
2023/11/06 20:18:40;;;;;;;;;3.00;0.67;;;;;23.13;43.84;100523.47;4957320;28;45429;-72
2023/11/06 20:21:07;;;;;;;;;3.00;1.00;;;;;23.11;43.79;100525.50;4956402;28;45560;-73
2023/11/06 20:23:32;;;;;;;;;2.00;2.00;;;;;22.80;43.90;100479.78;4956699;28;46818;-72
2023/11/06 20:25:58;;;;;;;;;3.00;2.00;;;;;23.24;43.53;100551.28;4955937;28;45477;-72
2023/11/06 20:28:23;;;;;;;;;3.00;3.00;;;;;22.94;43.63;100501.91;4956465;28;45392;-72
2023/11/06 20:30:49;;;;;;;;;2.00;2.00;;;;;22.94;43.61;100513.34;4956125;28;45406;-73
2023/11/06 20:33:14;;;;;;;;;3.00;3.00;;;;;23.10;43.55;100529.16;4955648;28;46462;-73
2023/11/06 20:35:41;;;;;;;;;1.67;1.00;;;;;23.00;43.62;100513.59;4956626;28;45409;-73
2023/11/06 20:38:07;;;;;;;;;2.00;2.00;;;;;23.27;43.41;100562.31;4955802;28;45512;-72
2023/11/06 20:40:32;;;;;;;;;1.00;1.00;;;;;22.88;43.77;100522.09;4956345;28;45456;-73
2023/11/06 20:42:58;;;;;;;;;1.00;0.00;;;;;23.08;43.64;100539.97;4956217;28;46119;-73
2023/11/06 20:45:23;;;;;;;;;1.00;1.00;;;;;23.27;43.66;100572.94;4956147;28;45935;-73
2023/11/06 20:47:50;;;;;;;;;1.00;1.00;;;;;23.27;43.20;100577.44;4955905;28;45260;-73
2023/11/06 20:50:16;;;;;;;;;3.00;1.00;;;;;23.27;43.50;100578.25;4956506;28;45378;-74
2023/11/06 20:52:42;;;;;;;;;3.33;1.33;;;;;23.27;43.43;100588.03;4955365;28;46225;-75
2023/11/06 20:55:08;;;;;;;;;2.00;2.00;;;;;23.27;43.72;100588.03;4956396;28;45401;-75
2023/11/06 20:57:34;;;;;;;;;2.00;2.00;;;;;23.23;43.58;100586.81;4955656;28;45547;-73
2023/11/06 21:00:00;;;;;;;;;3.00;2.00;;;;;23.26;43.91;100594.38;4956054;28;45325;-73
2023/11/06 21:02:26;;;;;;;;;3.33;3.33;;;;;23.28;43.48;100602.97;4955028;28;46289;-73
2023/11/06 21:04:53;;;;;;;;;2.00;2.00;;;;;23.28;43.88;100611.75;4955156;28;45310;-73
2023/11/06 21:07:18;;;;;;;;;1.67;1.67;;;;;23.30;43.66;100614.19;4955591;28;45384;-72
2023/11/06 21:09:44;;;;;;;;;3.00;2.00;;;;;23.29;43.73;100624.00;4956243;28;45347;-73
2023/11/06 21:12:10;;;;;;;;;1.00;1.00;;;;;23.22;43.75;100615.19;4955888;28;45541;-74
2023/11/06 21:14:36;;;;;;;;;2.00;2.00;;;;;23.15;43.65;100599.22;4956323;28;45413;-73
2023/11/06 21:17:01;;;;;;;;;1.67;1.67;;;;;23.29;43.56;100621.34;4956453;28;45299;-73
2023/11/06 21:19:27;;;;;;;;;1.67;1.67;;;;;23.25;43.68;100614.78;4947164;28;45499;-72
2023/11/06 21:21:52;;;;;;;;;2.00;2.00;;;;;23.23;43.60;100610.69;4956026;28;46952;-72
2023/11/06 21:24:18;;;;;;;;;4.00;1.00;;;;;23.33;44.21;100628.94;4956055;28;45501;-71
2023/11/06 21:26:43;;;;;;;;;4.00;4.00;;;;;23.27;44.26;100622.56;4956453;28;45386;-71
2023/11/06 21:29:08;;;;;;;;;2.00;2.00;;;;;23.35;44.15;100630.38;4955929;28;45298;-70
2023/11/06 21:31:34;;;;;;;;;1.00;1.00;;;;;23.29;44.35;100624.00;4956237;28;45522;-71
2023/11/06 21:34:00;;;;;;;;;1.00;1.00;;;;;23.30;44.56;100624.81;4955817;28;54629;-71
2023/11/06 21:36:26;;;;;;;;;3.00;1.00;;;;;23.36;44.52;100631.19;4955481;28;45432;-71
2023/11/06 21:38:51;;;;;;;;;3.67;2.33;;;;;23.37;44.33;100635.47;4955832;28;45501;-71
2023/11/06 21:41:17;;;;;;;;;2.67;2.67;;;;;23.36;44.33;100637.31;4954364;28;46925;-71
2023/11/06 21:43:42;;;;;;;;;2.33;1.00;;;;;23.32;44.48;100630.75;4957966;28;45405;-70
2023/11/06 21:46:08;;;;;;;;;1.00;1.00;;;;;23.39;44.58;100636.13;4959258;28;45295;-71
2023/11/06 21:48:35;;;;;;;;;1.00;1.00;;;;;23.34;44.62;100626.06;4959603;28;45347;-70
2023/11/06 21:51:00;;;;;;;;;2.00;2.00;;;;;23.26;44.73;100620.94;4959035;28;46500;-71
2023/11/06 21:53:26;;;;;;;;;3.00;1.00;;;;;23.40;44.71;100633.25;4958847;28;45371;-72
2023/11/06 21:55:51;;;;;;;;;2.00;2.00;;;;;23.43;44.55;100642.66;4958899;28;45519;-73
2023/11/06 21:58:17;;;;;;;;;3.00;1.67;;;;;23.45;45.01;100639.81;4958988;28;45473;-75
2023/11/06 22:00:43;;;;;;;;;3.00;1.00;;;;;23.47;44.44;100648.44;4958821;28;46244;-74
2023/11/06 22:03:09;;;;;;;;;2.00;2.00;;;;;23.37;44.70;100630.16;4959051;28;45436;-73
2023/11/06 22:05:34;;;;;;;;;3.00;2.00;;;;;23.14;44.37;100605.53;4958567;28;45947;-73
2023/11/06 22:07:59;;;;;;;;;2.00;2.00;;;;;23.45;44.73;100650.44;4957998;28;45511;-74
2023/11/06 22:10:25;;;;;;;;;4.00;3.00;;;;;23.48;44.94;100656.19;4959003;28;45966;-72
2023/11/06 22:12:50;;;;;;;;;3.67;2.00;;;;;23.38;43.91;100648.56;4958726;28;46219;-73
2023/11/06 22:15:16;;;;;;;;;5.00;3.00;;;;;23.48;44.28;100664.16;4958683;28;45385;-73
2023/11/06 22:17:41;;;;;;;;;2.00;1.00;;;;;23.31;44.85;100636.25;4958670;28;45592;-73
2023/11/06 22:20:08;;;;;;;;;1.00;1.00;;;;;23.48;44.36;100668.63;4958336;28;45788;-73
2023/11/06 22:22:33;;;;;;;;;1.00;1.00;;;;;23.39;44.48;100649.41;4958344;28;45373;-74
2023/11/06 22:24:58;;;;;;;;;2.00;1.00;;;;;23.39;44.39;100644.09;4958539;28;45731;-74
2023/11/06 22:27:26;;;;;;;;;2.00;2.00;;;;;23.47;44.57;100662.50;4958632;28;45354;-74
2023/11/06 22:29:51;;;;;;;;;1.00;1.00;;;;;23.47;44.45;100667.81;4958674;28;46084;-74
2023/11/06 22:32:17;;;;;;;;;2.00;2.00;;;;;23.47;44.79;100665.16;4958379;28;45370;-74
2023/11/06 22:34:43;;;;;;;;;3.00;3.00;;;;;23.38;44.60;100655.72;4958281;28;45349;-75
2023/11/06 22:37:08;;;;;;;;;1.00;1.00;;;;;23.44;44.69;100660.25;4958275;28;45593;-74
2023/11/06 22:39:33;;;;;;;;;2.00;2.00;;;;;23.34;44.89;100649.16;4958595;28;46465;-73
2023/11/06 22:41:59;;;;;;;;;1.00;1.00;;;;;23.46;44.99;100668.84;4958015;28;45591;-74
2023/11/06 22:44:25;;;;;;;;;1.00;1.00;;;;;23.46;44.73;100679.47;4957785;28;54413;-74
2023/11/06 22:46:51;;;;;;;;;3.00;2.00;;;;;23.46;44.44;100673.31;4958475;28;45416;-73
2023/11/06 22:49:16;;;;;;;;;3.00;1.33;;;;;23.33;44.48;100658.94;4957753;28;47120;-74
2023/11/06 22:51:42;;;;;;;;;2.00;2.00;;;;;23.45;44.73;100671.66;4957811;28;45536;-74
2023/11/06 22:54:07;;;;;;;;;3.00;2.00;;;;;23.42;44.58;100669.44;4953697;28;45357;-73
2023/11/06 22:56:32;;;;;;;;;1.00;1.00;;;;;23.41;44.93;100668.59;4950280;28;56924;-73
2023/11/06 22:58:58;;;;;;;;;1.33;1.33;;;;;23.42;44.74;100675.53;4943578;28;46051;-75
